sensor_id;sensor_type;location;lat;lon;timestamp;temperature;humidity
4406;DHT22;2216;53.806;11.598;2022-07-29T00:01:36;12.00;49.50
4406;DHT22;2216;53.806;11.598;2022-07-29T00:04:02;12.00;49.40
4406;DHT22;2216;53.806;11.598;2022-07-29T00:06:27;11.90;49.30
4406;DHT22;2216;53.806;11.598;2022-07-29T00:08:53;11.90;49.40
4406;DHT22;2216;53.806;11.598;2022-07-29T00:11:19;11.90;49.60
4406;DHT22;2216;53.806;11.598;2022-07-29T00:13:44;11.80;49.50
4406;DHT22;2216;53.806;11.598;2022-07-29T00:16:10;11.90;49.70
4406;DHT22;2216;53.806;11.598;2022-07-29T00:18:36;11.80;49.70
4406;DHT22;2216;53.806;11.598;2022-07-29T00:21:01;11.80;49.70
4406;DHT22;2216;53.806;11.598;2022-07-29T00:23:27;11.80;49.70
4406;DHT22;2216;53.806;11.598;2022-07-29T00:25:53;11.70;49.60
4406;DHT22;2216;53.806;11.598;2022-07-29T00:28:18;11.70;49.70
4406;DHT22;2216;53.806;11.598;2022-07-29T00:30:44;11.70;49.70
4406;DHT22;2216;53.806;11.598;2022-07-29T00:33:10;11.70;49.80
4406;DHT22;2216;53.806;11.598;2022-07-29T00:35:35;11.60;49.70
4406;DHT22;2216;53.806;11.598;2022-07-29T00:38:16;11.60;49.70
4406;DHT22;2216;53.806;11.598;2022-07-29T00:40:43;11.60;49.60
4406;DHT22;2216;53.806;11.598;2022-07-29T00:43:10;11.60;49.70
4406;DHT22;2216;53.806;11.598;2022-07-29T00:45:36;11.60;49.80
4406;DHT22;2216;53.806;11.598;2022-07-29T00:48:03;11.50;49.80
4406;DHT22;2216;53.806;11.598;2022-07-29T00:50:30;11.50;49.90
4406;DHT22;2216;53.806;11.598;2022-07-29T00:52:56;11.50;49.90
4406;DHT22;2216;53.806;11.598;2022-07-29T00:55:22;11.40;49.90
4406;DHT22;2216;53.806;11.598;2022-07-29T00:57:48;11.40;50.00
4406;DHT22;2216;53.806;11.598;2022-07-29T01:00:20;11.50;49.90
4406;DHT22;2216;53.806;11.598;2022-07-29T01:02:48;11.40;49.90
4406;DHT22;2216;53.806;11.598;2022-07-29T01:05:20;11.40;49.80
4406;DHT22;2216;53.806;11.598;2022-07-29T01:07:49;11.40;49.90
4406;DHT22;2216;53.806;11.598;2022-07-29T01:10:18;11.30;49.80
4406;DHT22;2216;53.806;11.598;2022-07-29T01:12:47;11.30;49.80
4406;DHT22;2216;53.806;11.598;2022-07-29T01:15:14;11.10;49.70
4406;DHT22;2216;53.806;11.598;2022-07-29T01:23:48;11.20;50.10
4406;DHT22;2216;53.806;11.598;2022-07-29T01:27:04;11.20;50.10
4406;DHT22;2216;53.806;11.598;2022-07-29T01:29:41;11.20;50.00
4406;DHT22;2216;53.806;11.598;2022-07-29T01:32:36;11.00;50.00
4406;DHT22;2216;53.806;11.598;2022-07-29T01:38:22;11.20;50.20
4406;DHT22;2216;53.806;11.598;2022-07-29T01:43:18;11.10;50.30
4406;DHT22;2216;53.806;11.598;2022-07-29T01:45:57;11.10;50.90
4406;DHT22;2216;53.806;11.598;2022-07-29T01:48:38;11.10;50.70
4406;DHT22;2216;53.806;11.598;2022-07-29T01:56:53;11.00;50.10
4406;DHT22;2216;53.806;11.598;2022-07-29T01:59:21;11.00;50.20
4406;DHT22;2216;53.806;11.598;2022-07-29T02:01:50;11.00;50.20
4406;DHT22;2216;53.806;11.598;2022-07-29T02:04:18;11.00;50.40
4406;DHT22;2216;53.806;11.598;2022-07-29T02:06:48;11.00;50.30
4406;DHT22;2216;53.806;11.598;2022-07-29T02:09:15;11.00;50.40
4406;DHT22;2216;53.806;11.598;2022-07-29T02:11:51;11.00;50.50
4406;DHT22;2216;53.806;11.598;2022-07-29T02:14:19;11.00;50.40
4406;DHT22;2216;53.806;11.598;2022-07-29T02:16:47;11.00;50.40
4406;DHT22;2216;53.806;11.598;2022-07-29T02:19:17;10.90;50.40
4406;DHT22;2216;53.806;11.598;2022-07-29T02:21:44;10.90;50.40
4406;DHT22;2216;53.806;11.598;2022-07-29T02:24:11;10.90;50.50
4406;DHT22;2216;53.806;11.598;2022-07-29T02:26:40;10.90;50.30
4406;DHT22;2216;53.806;11.598;2022-07-29T02:29:07;10.90;50.30
4406;DHT22;2216;53.806;11.598;2022-07-29T02:31:35;10.90;50.40
4406;DHT22;2216;53.806;11.598;2022-07-29T02:34:03;10.90;50.30
4406;DHT22;2216;53.806;11.598;2022-07-29T02:36:31;10.90;50.40
4406;DHT22;2216;53.806;11.598;2022-07-29T02:38:58;10.90;50.50
4406;DHT22;2216;53.806;11.598;2022-07-29T02:41:46;10.90;50.60
4406;DHT22;2216;53.806;11.598;2022-07-29T02:44:24;10.90;50.60
4406;DHT22;2216;53.806;11.598;2022-07-29T02:47:24;10.80;50.50
4406;DHT22;2216;53.806;11.598;2022-07-29T02:50:12;10.90;50.60
4406;DHT22;2216;53.806;11.598;2022-07-29T02:52:44;10.90;50.70
4406;DHT22;2216;53.806;11.598;2022-07-29T02:55:25;10.80;50.60
4406;DHT22;2216;53.806;11.598;2022-07-29T02:58:08;10.80;50.70
4406;DHT22;2216;53.806;11.598;2022-07-29T03:00:40;10.80;50.60
4406;DHT22;2216;53.806;11.598;2022-07-29T03:03:14;10.80;50.60
4406;DHT22;2216;53.806;11.598;2022-07-29T03:05:41;10.80;50.80
4406;DHT22;2216;53.806;11.598;2022-07-29T03:08:09;10.80;50.70
4406;DHT22;2216;53.806;11.598;2022-07-29T03:10:39;10.80;50.80
4406;DHT22;2216;53.806;11.598;2022-07-29T03:13:07;10.80;50.80
4406;DHT22;2216;53.806;11.598;2022-07-29T03:15:33;10.80;50.80
4406;DHT22;2216;53.806;11.598;2022-07-29T03:17:59;10.80;50.80
4406;DHT22;2216;53.806;11.598;2022-07-29T03:20:25;10.80;50.80
4406;DHT22;2216;53.806;11.598;2022-07-29T03:22:51;10.80;50.80
4406;DHT22;2216;53.806;11.598;2022-07-29T03:25:19;10.80;50.80
4406;DHT22;2216;53.806;11.598;2022-07-29T03:27:46;10.80;50.80
4406;DHT22;2216;53.806;11.598;2022-07-29T03:30:13;10.80;50.80
4406;DHT22;2216;53.806;11.598;2022-07-29T03:32:41;10.80;50.90
4406;DHT22;2216;53.806;11.598;2022-07-29T03:35:07;10.80;50.90
4406;DHT22;2216;53.806;11.598;2022-07-29T03:37:33;10.80;51.00
4406;DHT22;2216;53.806;11.598;2022-07-29T03:40:03;10.80;51.00
4406;DHT22;2216;53.806;11.598;2022-07-29T03:42:33;10.80;51.10
4406;DHT22;2216;53.806;11.598;2022-07-29T03:45:02;10.80;51.10
4406;DHT22;2216;53.806;11.598;2022-07-29T03:47:32;10.80;51.10
4406;DHT22;2216;53.806;11.598;2022-07-29T03:50:04;10.80;51.20
4406;DHT22;2216;53.806;11.598;2022-07-29T03:52:32;10.80;51.30
4406;DHT22;2216;53.806;11.598;2022-07-29T03:54:58;10.90;51.30
4406;DHT22;2216;53.806;11.598;2022-07-29T03:57:25;10.90;51.20
4406;DHT22;2216;53.806;11.598;2022-07-29T03:59:53;11.00;51.30
4406;DHT22;2216;53.806;11.598;2022-07-29T04:02:19;11.00;51.30
4406;DHT22;2216;53.806;11.598;2022-07-29T04:04:45;11.10;51.40
4406;DHT22;2216;53.806;11.598;2022-07-29T04:07:14;11.20;51.50
4406;DHT22;2216;53.806;11.598;2022-07-29T04:09:40;11.20;51.40
4406;DHT22;2216;53.806;11.598;2022-07-29T04:12:07;11.30;51.40
4406;DHT22;2216;53.806;11.598;2022-07-29T04:14:33;11.30;51.50
4406;DHT22;2216;53.806;11.598;2022-07-29T04:17:02;11.40;51.50
4406;DHT22;2216;53.806;11.598;2022-07-29T04:19:29;11.50;51.50
4406;DHT22;2216;53.806;11.598;2022-07-29T04:21:56;11.50;51.60
4406;DHT22;2216;53.806;11.598;2022-07-29T04:24:22;11.60;51.60
4406;DHT22;2216;53.806;11.598;2022-07-29T04:26:48;11.60;51.60
4406;DHT22;2216;53.806;11.598;2022-07-29T04:29:14;11.70;51.70
4406;DHT22;2216;53.806;11.598;2022-07-29T04:31:40;11.80;51.70
4406;DHT22;2216;53.806;11.598;2022-07-29T04:34:07;11.90;51.80
4406;DHT22;2216;53.806;11.598;2022-07-29T04:36:33;12.00;51.80
4406;DHT22;2216;53.806;11.598;2022-07-29T04:38:59;12.10;51.90
4406;DHT22;2216;53.806;11.598;2022-07-29T04:41:26;11.90;51.70
4406;DHT22;2216;53.806;11.598;2022-07-29T04:43:52;12.30;52.00
4406;DHT22;2216;53.806;11.598;2022-07-29T04:46:18;12.50;52.30
4406;DHT22;2216;53.806;11.598;2022-07-29T04:48:45;12.60;52.30
4406;DHT22;2216;53.806;11.598;2022-07-29T04:51:12;12.80;52.40
4406;DHT22;2216;53.806;11.598;2022-07-29T04:53:38;13.00;52.60
4406;DHT22;2216;53.806;11.598;2022-07-29T04:56:04;13.20;52.70
4406;DHT22;2216;53.806;11.598;2022-07-29T04:58:29;13.30;53.20
4406;DHT22;2216;53.806;11.598;2022-07-29T05:00:55;13.50;52.60
4406;DHT22;2216;53.806;11.598;2022-07-29T05:03:21;13.60;52.40
4406;DHT22;2216;53.806;11.598;2022-07-29T05:05:46;13.70;52.30
4406;DHT22;2216;53.806;11.598;2022-07-29T05:08:12;13.80;52.80
4406;DHT22;2216;53.806;11.598;2022-07-29T05:10:38;13.90;52.90
4406;DHT22;2216;53.806;11.598;2022-07-29T05:13:07;14.00;52.60
4406;DHT22;2216;53.806;11.598;2022-07-29T05:15:34;14.10;53.00
4406;DHT22;2216;53.806;11.598;2022-07-29T05:18:01;14.20;53.50
4406;DHT22;2216;53.806;11.598;2022-07-29T05:20:27;14.30;53.10
4406;DHT22;2216;53.806;11.598;2022-07-29T05:22:58;14.40;53.40
4406;DHT22;2216;53.806;11.598;2022-07-29T05:25:26;14.50;53.00
4406;DHT22;2216;53.806;11.598;2022-07-29T05:27:52;14.70;53.50
4406;DHT22;2216;53.806;11.598;2022-07-29T05:30:18;14.90;53.50
4406;DHT22;2216;53.806;11.598;2022-07-29T05:32:44;15.10;53.60
4406;DHT22;2216;53.806;11.598;2022-07-29T05:35:12;15.30;53.80
4406;DHT22;2216;53.806;11.598;2022-07-29T05:37:39;15.50;53.70
4406;DHT22;2216;53.806;11.598;2022-07-29T05:40:05;15.60;53.40
4406;DHT22;2216;53.806;11.598;2022-07-29T05:42:31;15.80;53.60
4406;DHT22;2216;53.806;11.598;2022-07-29T05:44:57;15.90;53.50
4406;DHT22;2216;53.806;11.598;2022-07-29T05:47:24;16.10;53.90
4406;DHT22;2216;53.806;11.598;2022-07-29T05:49:50;16.20;53.40
4406;DHT22;2216;53.806;11.598;2022-07-29T05:52:16;16.40;53.70
4406;DHT22;2216;53.806;11.598;2022-07-29T05:54:42;16.50;53.30
4406;DHT22;2216;53.806;11.598;2022-07-29T05:57:08;16.60;53.60
4406;DHT22;2216;53.806;11.598;2022-07-29T05:59:38;16.70;53.30
4406;DHT22;2216;53.806;11.598;2022-07-29T06:02:04;16.70;53.20
4406;DHT22;2216;53.806;11.598;2022-07-29T06:04:33;16.80;53.30
4406;DHT22;2216;53.806;11.598;2022-07-29T06:06:59;16.90;53.40
4406;DHT22;2216;53.806;11.598;2022-07-29T06:09:25;17.00;53.70
4406;DHT22;2216;53.806;11.598;2022-07-29T06:11:51;17.10;53.60
4406;DHT22;2216;53.806;11.598;2022-07-29T06:14:17;17.30;53.60
4406;DHT22;2216;53.806;11.598;2022-07-29T06:16:43;17.50;54.10
4406;DHT22;2216;53.806;11.598;2022-07-29T06:19:09;17.70;54.30
4406;DHT22;2216;53.806;11.598;2022-07-29T06:21:35;17.90;54.00
4406;DHT22;2216;53.806;11.598;2022-07-29T06:24:00;18.10;53.70
4406;DHT22;2216;53.806;11.598;2022-07-29T06:26:26;18.30;53.70
4406;DHT22;2216;53.806;11.598;2022-07-29T06:28:52;18.40;53.60
4406;DHT22;2216;53.806;11.598;2022-07-29T06:31:17;18.60;53.30
4406;DHT22;2216;53.806;11.598;2022-07-29T06:33:43;18.70;53.30
4406;DHT22;2216;53.806;11.598;2022-07-29T06:36:09;18.80;53.40
4406;DHT22;2216;53.806;11.598;2022-07-29T06:38:34;19.00;53.40
4406;DHT22;2216;53.806;11.598;2022-07-29T06:41:01;19.10;53.40
4406;DHT22;2216;53.806;11.598;2022-07-29T06:43:39;19.20;53.20
4406;DHT22;2216;53.806;11.598;2022-07-29T06:46:14;19.40;53.30
4406;DHT22;2216;53.806;11.598;2022-07-29T06:48:43;19.50;53.10
4406;DHT22;2216;53.806;11.598;2022-07-29T06:51:09;19.60;52.90
4406;DHT22;2216;53.806;11.598;2022-07-29T06:53:37;19.70;52.80
4406;DHT22;2216;53.806;11.598;2022-07-29T06:56:04;19.70;52.70
4406;DHT22;2216;53.806;11.598;2022-07-29T06:58:33;19.80;52.70
4406;DHT22;2216;53.806;11.598;2022-07-29T07:01:02;19.90;52.50
4406;DHT22;2216;53.806;11.598;2022-07-29T07:03:28;19.90;52.30
4406;DHT22;2216;53.806;11.598;2022-07-29T07:05:54;19.90;52.30
4406;DHT22;2216;53.806;11.598;2022-07-29T07:08:21;19.90;52.30
4406;DHT22;2216;53.806;11.598;2022-07-29T07:10:48;19.90;52.20
4406;DHT22;2216;53.806;11.598;2022-07-29T07:13:14;20.00;52.40
4406;DHT22;2216;53.806;11.598;2022-07-29T07:15:42;20.00;52.30
4406;DHT22;2216;53.806;11.598;2022-07-29T07:18:09;20.00;52.40
4406;DHT22;2216;53.806;11.598;2022-07-29T07:20:36;20.10;52.30
4406;DHT22;2216;53.806;11.598;2022-07-29T07:23:02;20.00;52.30
4406;DHT22;2216;53.806;11.598;2022-07-29T07:25:27;20.10;52.40
4406;DHT22;2216;53.806;11.598;2022-07-29T07:27:53;20.20;52.40
4406;DHT22;2216;53.806;11.598;2022-07-29T07:30:19;20.20;52.30
4406;DHT22;2216;53.806;11.598;2022-07-29T07:32:44;20.20;52.30
4406;DHT22;2216;53.806;11.598;2022-07-29T07:35:10;20.30;52.30
4406;DHT22;2216;53.806;11.598;2022-07-29T07:37:37;20.30;52.40
4406;DHT22;2216;53.806;11.598;2022-07-29T07:40:06;20.40;52.50
4406;DHT22;2216;53.806;11.598;2022-07-29T07:42:33;20.50;52.40
4406;DHT22;2216;53.806;11.598;2022-07-29T07:44:59;20.50;52.40
4406;DHT22;2216;53.806;11.598;2022-07-29T07:47:24;20.60;52.60
4406;DHT22;2216;53.806;11.598;2022-07-29T07:49:50;20.70;52.40
4406;DHT22;2216;53.806;11.598;2022-07-29T07:52:17;20.90;52.60
4406;DHT22;2216;53.806;11.598;2022-07-29T07:54:43;21.00;52.50
4406;DHT22;2216;53.806;11.598;2022-07-29T07:57:10;21.10;52.40
4406;DHT22;2216;53.806;11.598;2022-07-29T07:59:37;21.30;52.40
4406;DHT22;2216;53.806;11.598;2022-07-29T08:02:03;21.50;52.40
4406;DHT22;2216;53.806;11.598;2022-07-29T08:04:29;21.70;52.30
4406;DHT22;2216;53.806;11.598;2022-07-29T08:06:56;21.80;52.30
4406;DHT22;2216;53.806;11.598;2022-07-29T08:09:23;22.00;52.10
4406;DHT22;2216;53.806;11.598;2022-07-29T08:11:50;22.20;51.90
4406;DHT22;2216;53.806;11.598;2022-07-29T08:14:16;22.40;52.10
4406;DHT22;2216;53.806;11.598;2022-07-29T08:16:42;22.50;51.30
4406;DHT22;2216;53.806;11.598;2022-07-29T08:19:08;22.60;51.20
4406;DHT22;2216;53.806;11.598;2022-07-29T08:21:35;22.70;51.20
4406;DHT22;2216;53.806;11.598;2022-07-29T08:24:01;22.80;51.20
4406;DHT22;2216;53.806;11.598;2022-07-29T08:26:45;22.90;51.10
4406;DHT22;2216;53.806;11.598;2022-07-29T08:29:12;23.10;50.50
4406;DHT22;2216;53.806;11.598;2022-07-29T08:31:38;23.20;50.50
4406;DHT22;2216;53.806;11.598;2022-07-29T08:34:04;23.20;50.30
4406;DHT22;2216;53.806;11.598;2022-07-29T08:36:31;23.20;50.40
4406;DHT22;2216;53.806;11.598;2022-07-29T08:38:58;23.30;50.40
4406;DHT22;2216;53.806;11.598;2022-07-29T08:41:24;23.20;50.30
4406;DHT22;2216;53.806;11.598;2022-07-29T08:43:51;23.30;50.20
4406;DHT22;2216;53.806;11.598;2022-07-29T08:46:18;23.30;50.20
4406;DHT22;2216;53.806;11.598;2022-07-29T08:48:45;23.30;49.90
4406;DHT22;2216;53.806;11.598;2022-07-29T08:51:16;23.20;49.90
4406;DHT22;2216;53.806;11.598;2022-07-29T08:53:45;23.30;50.00
4406;DHT22;2216;53.806;11.598;2022-07-29T08:56:14;23.30;50.10
4406;DHT22;2216;53.806;11.598;2022-07-29T08:58:45;23.40;50.00
4406;DHT22;2216;53.806;11.598;2022-07-29T09:01:14;23.70;50.50
4406;DHT22;2216;53.806;11.598;2022-07-29T09:03:44;23.90;50.20
4406;DHT22;2216;53.806;11.598;2022-07-29T09:06:13;24.10;49.40
4406;DHT22;2216;53.806;11.598;2022-07-29T09:08:40;24.30;49.70
4406;DHT22;2216;53.806;11.598;2022-07-29T09:11:06;24.40;49.20
4406;DHT22;2216;53.806;11.598;2022-07-29T09:13:33;24.50;48.70
4406;DHT22;2216;53.806;11.598;2022-07-29T09:15:59;24.60;49.00
4406;DHT22;2216;53.806;11.598;2022-07-29T09:18:39;24.70;48.60
4406;DHT22;2216;53.806;11.598;2022-07-29T09:21:08;24.70;48.40
4406;DHT22;2216;53.806;11.598;2022-07-29T09:24:11;24.70;48.20
4406;DHT22;2216;53.806;11.598;2022-07-29T09:26:43;24.70;48.00
4406;DHT22;2216;53.806;11.598;2022-07-29T09:29:12;24.60;47.90
4406;DHT22;2216;53.806;11.598;2022-07-29T09:31:44;24.60;48.20
4406;DHT22;2216;53.806;11.598;2022-07-29T09:34:13;24.60;48.30
4406;DHT22;2216;53.806;11.598;2022-07-29T09:36:47;24.60;48.50
4406;DHT22;2216;53.806;11.598;2022-07-29T09:39:15;24.70;48.10
4406;DHT22;2216;53.806;11.598;2022-07-29T09:44:15;24.70;47.70
4406;DHT22;2216;53.806;11.598;2022-07-29T09:47:02;24.60;47.50
4406;DHT22;2216;53.806;11.598;2022-07-29T09:49:31;24.60;47.60
4406;DHT22;2216;53.806;11.598;2022-07-29T09:52:06;24.50;47.70
4406;DHT22;2216;53.806;11.598;2022-07-29T09:54:34;24.60;47.50
4406;DHT22;2216;53.806;11.598;2022-07-29T09:57:06;24.60;47.90
4406;DHT22;2216;53.806;11.598;2022-07-29T09:59:34;24.70;47.90
4406;DHT22;2216;53.806;11.598;2022-07-29T10:02:00;24.60;47.60
4406;DHT22;2216;53.806;11.598;2022-07-29T10:04:40;24.60;47.60
4406;DHT22;2216;53.806;11.598;2022-07-29T10:07:07;24.60;47.30
4406;DHT22;2216;53.806;11.598;2022-07-29T10:09:33;24.50;47.60
4406;DHT22;2216;53.806;11.598;2022-07-29T10:12:08;24.50;47.60
4406;DHT22;2216;53.806;11.598;2022-07-29T10:14:35;24.50;47.10
4406;DHT22;2216;53.806;11.598;2022-07-29T10:17:03;24.40;47.20
4406;DHT22;2216;53.806;11.598;2022-07-29T10:19:31;24.40;47.30
4406;DHT22;2216;53.806;11.598;2022-07-29T10:21:58;24.30;47.10
4406;DHT22;2216;53.806;11.598;2022-07-29T10:24:29;24.30;47.10
4406;DHT22;2216;53.806;11.598;2022-07-29T10:26:57;24.30;47.10
4406;DHT22;2216;53.806;11.598;2022-07-29T10:29:25;24.30;47.50
4406;DHT22;2216;53.806;11.598;2022-07-29T10:41:59;24.60;47.90
4406;DHT22;2216;53.806;11.598;2022-07-29T10:44:32;24.80;47.50
4406;DHT22;2216;53.806;11.598;2022-07-29T10:46:58;25.00;47.40
4406;DHT22;2216;53.806;11.598;2022-07-29T10:49:26;25.10;47.20
4406;DHT22;2216;53.806;11.598;2022-07-29T10:52:00;25.10;46.70
4406;DHT22;2216;53.806;11.598;2022-07-29T10:54:36;25.20;47.10
4406;DHT22;2216;53.806;11.598;2022-07-29T10:57:16;25.40;47.00
4406;DHT22;2216;53.806;11.598;2022-07-29T11:10:35;25.50;46.60
4406;DHT22;2216;53.806;11.598;2022-07-29T11:13:00;25.60;46.80
4406;DHT22;2216;53.806;11.598;2022-07-29T11:15:26;25.50;46.60
4406;DHT22;2216;53.806;11.598;2022-07-29T11:20:38;25.50;46.50
4406;DHT22;2216;53.806;11.598;2022-07-29T11:23:19;25.50;46.70
4406;DHT22;2216;53.806;11.598;2022-07-29T11:31:20;25.50;46.70
4406;DHT22;2216;53.806;11.598;2022-07-29T11:45:03;25.60;46.20
4406;DHT22;2216;53.806;11.598;2022-07-29T11:50:12;25.60;45.80
4406;DHT22;2216;53.806;11.598;2022-07-29T11:52:42;25.60;46.10
4406;DHT22;2216;53.806;11.598;2022-07-29T11:55:17;25.70;45.80
4406;DHT22;2216;53.806;11.598;2022-07-29T11:57:50;25.70;46.30
4406;DHT22;2216;53.806;11.598;2022-07-29T12:00:39;25.80;46.00
4406;DHT22;2216;53.806;11.598;2022-07-29T12:03:08;25.90;46.40
4406;DHT22;2216;53.806;11.598;2022-07-29T12:08:16;26.10;45.80
4406;DHT22;2216;53.806;11.598;2022-07-29T12:10:50;26.30;45.30
4406;DHT22;2216;53.806;11.598;2022-07-29T12:13:18;26.40;45.60
4406;DHT22;2216;53.806;11.598;2022-07-29T12:15:55;26.50;44.90
4406;DHT22;2216;53.806;11.598;2022-07-29T12:18:23;26.50;45.50
4406;DHT22;2216;53.806;11.598;2022-07-29T12:20:57;26.60;44.80
4406;DHT22;2216;53.806;11.598;2022-07-29T12:23:32;26.70;44.90
4406;DHT22;2216;53.806;11.598;2022-07-29T12:25:58;26.80;44.40
4406;DHT22;2216;53.806;11.598;2022-07-29T12:28:24;26.80;45.20
4406;DHT22;2216;53.806;11.598;2022-07-29T12:30:51;26.90;45.10
4406;DHT22;2216;53.806;11.598;2022-07-29T12:35:58;27.00;44.30
4406;DHT22;2216;53.806;11.598;2022-07-29T12:38:25;27.00;44.50
4406;DHT22;2216;53.806;11.598;2022-07-29T12:40:52;27.00;44.40
4406;DHT22;2216;53.806;11.598;2022-07-29T12:43:23;27.00;44.40
4406;DHT22;2216;53.806;11.598;2022-07-29T12:45:54;27.00;44.60
4406;DHT22;2216;53.806;11.598;2022-07-29T12:48:38;27.00;44.40
4406;DHT22;2216;53.806;11.598;2022-07-29T12:51:06;27.00;44.20
4406;DHT22;2216;53.806;11.598;2022-07-29T12:53:33;27.10;44.50
4406;DHT22;2216;53.806;11.598;2022-07-29T12:55:59;27.10;44.50
4406;DHT22;2216;53.806;11.598;2022-07-29T12:58:35;27.20;44.40
4406;DHT22;2216;53.806;11.598;2022-07-29T13:01:05;27.20;44.50
4406;DHT22;2216;53.806;11.598;2022-07-29T13:03:54;27.20;44.50
4406;DHT22;2216;53.806;11.598;2022-07-29T13:09:18;27.30;44.30
4406;DHT22;2216;53.806;11.598;2022-07-29T13:11:47;27.40;44.70
4406;DHT22;2216;53.806;11.598;2022-07-29T13:14:33;27.50;44.10
4406;DHT22;2216;53.806;11.598;2022-07-29T13:17:11;27.50;43.50
4406;DHT22;2216;53.806;11.598;2022-07-29T13:20:04;27.50;43.00
4406;DHT22;2216;53.806;11.598;2022-07-29T13:22:31;27.40;43.80
4406;DHT22;2216;53.806;11.598;2022-07-29T13:24:58;27.30;44.00
4406;DHT22;2216;53.806;11.598;2022-07-29T13:27:30;27.20;43.80
4406;DHT22;2216;53.806;11.598;2022-07-29T13:30:01;27.20;43.70
4406;DHT22;2216;53.806;11.598;2022-07-29T13:32:28;27.10;43.30
4406;DHT22;2216;53.806;11.598;2022-07-29T13:34:56;27.00;43.50
4406;DHT22;2216;53.806;11.598;2022-07-29T13:37:22;26.90;43.70
4406;DHT22;2216;53.806;11.598;2022-07-29T13:39:48;26.80;43.80
4406;DHT22;2216;53.806;11.598;2022-07-29T13:42:13;26.70;43.70
4406;DHT22;2216;53.806;11.598;2022-07-29T13:44:40;26.70;43.30
4406;DHT22;2216;53.806;11.598;2022-07-29T13:47:07;26.70;43.60
4406;DHT22;2216;53.806;11.598;2022-07-29T13:49:33;26.60;43.40
4406;DHT22;2216;53.806;11.598;2022-07-29T13:51:59;26.60;43.70
4406;DHT22;2216;53.806;11.598;2022-07-29T13:54:24;26.60;44.10
4406;DHT22;2216;53.806;11.598;2022-07-29T13:56:50;26.70;44.10
4406;DHT22;2216;53.806;11.598;2022-07-29T13:59:16;26.80;44.30
4406;DHT22;2216;53.806;11.598;2022-07-29T14:01:42;26.90;44.40
4406;DHT22;2216;53.806;11.598;2022-07-29T14:04:09;27.20;44.60
4406;DHT22;2216;53.806;11.598;2022-07-29T14:06:35;27.20;44.30
4406;DHT22;2216;53.806;11.598;2022-07-29T14:09:02;27.40;44.70
4406;DHT22;2216;53.806;11.598;2022-07-29T14:11:31;27.60;43.50
4406;DHT22;2216;53.806;11.598;2022-07-29T14:13:57;27.70;43.70
4406;DHT22;2216;53.806;11.598;2022-07-29T14:16:23;27.80;43.70
4406;DHT22;2216;53.806;11.598;2022-07-29T14:18:48;27.80;42.80
4406;DHT22;2216;53.806;11.598;2022-07-29T14:21:14;27.80;42.80
4406;DHT22;2216;53.806;11.598;2022-07-29T14:23:40;27.70;42.90
4406;DHT22;2216;53.806;11.598;2022-07-29T14:26:06;27.70;42.40
4406;DHT22;2216;53.806;11.598;2022-07-29T14:28:32;27.60;43.20
4406;DHT22;2216;53.806;11.598;2022-07-29T14:30:57;27.60;43.00
4406;DHT22;2216;53.806;11.598;2022-07-29T14:33:23;27.60;43.30
4406;DHT22;2216;53.806;11.598;2022-07-29T14:35:49;27.60;41.70
4406;DHT22;2216;53.806;11.598;2022-07-29T14:38:14;27.50;42.50
4406;DHT22;2216;53.806;11.598;2022-07-29T14:40:40;27.60;43.00
4406;DHT22;2216;53.806;11.598;2022-07-29T14:43:06;27.60;42.80
4406;DHT22;2216;53.806;11.598;2022-07-29T14:45:31;27.60;42.80
4406;DHT22;2216;53.806;11.598;2022-07-29T14:47:57;27.70;42.20
4406;DHT22;2216;53.806;11.598;2022-07-29T14:50:23;27.70;42.50
4406;DHT22;2216;53.806;11.598;2022-07-29T14:52:49;27.70;42.20
4406;DHT22;2216;53.806;11.598;2022-07-29T14:55:14;27.70;42.60
4406;DHT22;2216;53.806;11.598;2022-07-29T14:57:40;27.70;42.80
4406;DHT22;2216;53.806;11.598;2022-07-29T15:00:06;27.70;42.90
4406;DHT22;2216;53.806;11.598;2022-07-29T15:02:33;27.70;42.90
4406;DHT22;2216;53.806;11.598;2022-07-29T15:04:59;27.70;42.50
4406;DHT22;2216;53.806;11.598;2022-07-29T15:07:24;27.70;42.50
4406;DHT22;2216;53.806;11.598;2022-07-29T15:09:50;27.60;42.50
4406;DHT22;2216;53.806;11.598;2022-07-29T15:12:16;27.60;42.50
4406;DHT22;2216;53.806;11.598;2022-07-29T15:14:42;27.50;41.80
4406;DHT22;2216;53.806;11.598;2022-07-29T15:17:07;27.50;42.30
4406;DHT22;2216;53.806;11.598;2022-07-29T15:19:33;27.30;41.90
4406;DHT22;2216;53.806;11.598;2022-07-29T15:21:59;27.30;42.00
4406;DHT22;2216;53.806;11.598;2022-07-29T15:24:25;27.20;42.40
4406;DHT22;2216;53.806;11.598;2022-07-29T15:26:51;27.10;42.90
4406;DHT22;2216;53.806;11.598;2022-07-29T15:29:16;27.10;41.70
4406;DHT22;2216;53.806;11.598;2022-07-29T15:31:42;27.00;41.90
4406;DHT22;2216;53.806;11.598;2022-07-29T15:34:08;26.90;42.20
4406;DHT22;2216;53.806;11.598;2022-07-29T15:36:34;26.90;42.10
4406;DHT22;2216;53.806;11.598;2022-07-29T15:39:00;26.90;42.30
4406;DHT22;2216;53.806;11.598;2022-07-29T15:41:26;26.80;41.90
4406;DHT22;2216;53.806;11.598;2022-07-29T15:43:52;26.80;42.00
4406;DHT22;2216;53.806;11.598;2022-07-29T15:46:19;26.70;42.00
4406;DHT22;2216;53.806;11.598;2022-07-29T15:49:05;26.60;42.20
4406;DHT22;2216;53.806;11.598;2022-07-29T15:51:31;26.60;42.00
4406;DHT22;2216;53.806;11.598;2022-07-29T15:53:57;26.60;42.10
4406;DHT22;2216;53.806;11.598;2022-07-29T15:56:23;26.60;42.00
4406;DHT22;2216;53.806;11.598;2022-07-29T15:58:49;26.50;42.20
4406;DHT22;2216;53.806;11.598;2022-07-29T16:01:15;26.50;42.00
4406;DHT22;2216;53.806;11.598;2022-07-29T16:03:41;26.50;42.00
4406;DHT22;2216;53.806;11.598;2022-07-29T16:06:06;26.40;41.70
4406;DHT22;2216;53.806;11.598;2022-07-29T16:08:32;26.40;42.20
4406;DHT22;2216;53.806;11.598;2022-07-29T16:10:58;26.40;41.90
4406;DHT22;2216;53.806;11.598;2022-07-29T16:13:23;26.40;42.20
4406;DHT22;2216;53.806;11.598;2022-07-29T16:15:49;26.40;42.40
4406;DHT22;2216;53.806;11.598;2022-07-29T16:18:15;26.40;42.30
4406;DHT22;2216;53.806;11.598;2022-07-29T16:20:41;26.40;42.10
4406;DHT22;2216;53.806;11.598;2022-07-29T16:23:07;26.40;42.30
4406;DHT22;2216;53.806;11.598;2022-07-29T16:25:35;26.40;42.30
4406;DHT22;2216;53.806;11.598;2022-07-29T16:28:01;26.30;42.70
4406;DHT22;2216;53.806;11.598;2022-07-29T16:30:27;26.30;42.10
4406;DHT22;2216;53.806;11.598;2022-07-29T16:32:52;26.20;42.10
4406;DHT22;2216;53.806;11.598;2022-07-29T16:35:18;26.10;42.10
4406;DHT22;2216;53.806;11.598;2022-07-29T16:37:44;26.00;42.20
4406;DHT22;2216;53.806;11.598;2022-07-29T16:40:10;26.00;42.10
4406;DHT22;2216;53.806;11.598;2022-07-29T16:42:36;26.00;42.10
4406;DHT22;2216;53.806;11.598;2022-07-29T16:45:02;25.90;42.30
4406;DHT22;2216;53.806;11.598;2022-07-29T16:47:28;25.90;42.80
4406;DHT22;2216;53.806;11.598;2022-07-29T16:49:54;25.80;42.20
4406;DHT22;2216;53.806;11.598;2022-07-29T16:52:19;25.80;42.40
4406;DHT22;2216;53.806;11.598;2022-07-29T16:54:45;25.70;42.40
4406;DHT22;2216;53.806;11.598;2022-07-29T16:57:11;25.70;42.50
4406;DHT22;2216;53.806;11.598;2022-07-29T16:59:37;25.70;42.50
4406;DHT22;2216;53.806;11.598;2022-07-29T17:02:03;25.70;42.60
4406;DHT22;2216;53.806;11.598;2022-07-29T17:04:30;25.60;42.60